Chester, Virginia
Current Conditions -  °F | °C
As of 5:54 PM on Thursday 23 Oct 2014 (Local Time) from KRIC Reporting Station
Few Clouds Few Clouds  
Wind Chill: 65°   Ceiling: Unl
Heat Index: 65°   Visibility: 10mi
Dew Point: 44°   Wind: 15mph
Humidity: 47%   Direction: 340°NNW
Pressure: 29.9"   Gusts: 23mph
Location:  37.36°N, 77.44°W
Report Text: KRIC 232154Z 34013G20KT 10SM FEW055 18/07 A2990 RMK AO2 SLP129 T01830067
Loading
Personal Weather Stations






























Interactive Weather Map
Tropical Storm Tracking
New forecast layout! Learn more

10-Day Weather Forecast

Advertisements
Track Severe Weather on mobile